Time;durP1;ratioP1;P1;durP2;ratioP2;P2;SDS_P1;SDS_P2;PMS_P1;PMS_P2;Temp;Humidity;BMP_temperature;BMP_pressure;BME280_temperature;BME280_humidity;BME280_pressure;Samples;Min_cycle;Max_cycle;Signal;HPM_P1;HPM_P2
2021/03/07 00:00:30;;;;;;;6.70;3.40;;;;;;;0.95;100.00;102149.44;5086988;28;20750;-69
2021/03/07 00:02:56;;;;;;;6.20;4.03;;;;;;;0.94;100.00;102147.78;5070314;28;20222;-68
2021/03/07 00:05:22;;;;;;;7.20;3.80;;;;;;;0.99;100.00;102148.09;5053997;28;20260;-67
2021/03/07 00:07:52;;;;;;;6.03;3.83;;;;;;;0.97;100.00;102147.44;5088559;28;20190;-68
2021/03/07 00:10:18;;;;;;;5.30;3.77;;;;;;;0.98;100.00;102139.22;5039618;28;20240;-68
2021/03/07 00:12:45;;;;;;;9.33;5.07;;;;;;;0.82;100.00;102143.81;5071172;28;20171;-67
2021/03/07 00:15:11;;;;;;;6.00;3.90;;;;;;;0.78;100.00;102145.19;5088002;28;20206;-67
2021/03/07 00:17:37;;;;;;;5.90;3.63;;;;;;;0.74;100.00;102138.50;5088283;28;20199;-67
2021/03/07 00:20:07;;;;;;;7.50;4.10;;;;;;;0.75;100.00;102137.50;5038525;28;20183;-68
2021/03/07 00:22:33;;;;;;;7.40;3.73;;;;;;;0.66;100.00;102143.03;5036472;28;20303;-68
2021/03/07 00:24:59;;;;;;;8.63;3.90;;;;;;;0.71;100.00;102136.19;5070935;28;20211;-67
2021/03/07 00:27:24;;;;;;;6.87;3.40;;;;;;;0.66;100.00;102133.22;5053626;28;20219;-67
2021/03/07 00:29:50;;;;;;;4.83;3.20;;;;;;;0.72;100.00;102127.16;5087552;28;20535;-68
2021/03/07 00:32:18;;;;;;;6.63;3.20;;;;;;;0.68;100.00;102125.00;5070499;28;20219;-67
2021/03/07 00:34:43;;;;;;;7.10;2.90;;;;;;;0.67;100.00;102124.16;5071694;28;20223;-67
2021/03/07 00:37:09;;;;;;;5.87;3.30;;;;;;;0.67;100.00;102118.81;5071314;28;20253;-68
2021/03/07 00:39:35;;;;;;;5.77;3.43;;;;;;;0.67;100.00;102118.81;5037351;28;20684;-67
2021/03/07 00:42:00;;;;;;;6.83;2.97;;;;;;;0.60;100.00;102112.50;5035862;28;20233;-68
2021/03/07 00:44:27;;;;;;;5.87;2.90;;;;;;;0.70;100.00;102110.47;5037543;28;20185;-68
2021/03/07 00:46:52;;;;;;;7.67;2.80;;;;;;;0.67;100.00;102113.47;5088495;28;20226;-68
2021/03/07 00:49:21;;;;;;;5.83;3.13;;;;;;;0.62;100.00;102107.81;5054881;28;20187;-67
2021/03/07 00:51:52;;;;;;;5.37;3.03;;;;;;;0.58;100.00;102114.50;5085786;28;20907;-67
2021/03/07 00:54:17;;;;;;;6.20;3.33;;;;;;;0.74;100.00;102101.09;5071120;28;20179;-67
2021/03/07 00:56:43;;;;;;;5.23;2.80;;;;;;;0.75;100.00;102099.25;5070044;28;20253;-68
2021/03/07 00:59:09;;;;;;;3.33;2.73;;;;;;;0.77;100.00;102092.75;5053407;28;20260;-68
2021/03/07 01:01:34;;;;;;;5.03;2.97;;;;;;;0.72;100.00;102089.75;5070588;28;20222;-68
2021/03/07 01:04:00;;;;;;;6.70;3.30;;;;;;;0.73;100.00;102096.72;5052946;28;20283;-68
2021/03/07 01:06:26;;;;;;;6.00;3.37;;;;;;;0.88;100.00;102095.00;5070615;28;20219;-68
2021/03/07 01:08:54;;;;;;;5.43;3.30;;;;;;;0.73;100.00;102094.06;5103617;28;20269;-68
2021/03/07 01:11:20;;;;;;;8.30;3.27;;;;;;;0.81;100.00;102078.00;5069793;28;20330;-67
2021/03/07 01:13:47;;;;;;;9.13;3.00;;;;;;;0.75;100.00;102080.53;5068946;28;20189;-68
2021/03/07 01:16:15;;;;;;;6.13;3.00;;;;;;;0.80;100.00;102076.31;5069000;28;20287;-68
2021/03/07 01:18:41;;;;;;;6.30;3.20;;;;;;;0.80;100.00;102076.31;5070023;28;20181;-69
2021/03/07 01:21:06;;;;;;;4.50;3.20;;;;;;;0.84;100.00;102073.16;5069047;28;20600;-68
2021/03/07 01:23:33;;;;;;;4.23;3.10;;;;;;;0.81;100.00;102062.78;5102772;28;20194;-67
2021/03/07 01:25:59;;;;;;;5.50;2.97;;;;;;;0.91;100.00;102059.88;5085673;28;20233;-66
2021/03/07 01:28:27;;;;;;;4.83;3.13;;;;;;;0.73;100.00;102063.84;5085871;28;20186;-67
2021/03/07 01:30:53;;;;;;;5.63;3.23;;;;;;;0.94;100.00;102060.38;5052197;28;20284;-67
2021/03/07 01:33:20;;;;;;;6.53;3.03;;;;;;;0.82;100.00;102042.22;5035556;28;20178;-67
2021/03/07 01:35:48;;;;;;;4.63;3.20;;;;;;;0.97;100.00;102040.47;5052288;28;20308;-68
2021/03/07 01:38:14;;;;;;;6.83;3.53;;;;;;;0.89;100.00;102038.66;5052745;28;20191;-69
2021/03/07 01:40:50;;;;;;;6.10;3.13;;;;;;;0.96;100.00;102044.16;5068608;28;20253;-68
2021/03/07 01:43:24;;;;;;;5.23;3.13;;;;;;;0.96;100.00;102039.63;5068657;28;20214;-67
2021/03/07 01:45:52;;;;;;;5.83;3.53;;;;;;;0.87;100.00;102035.34;5084806;28;20221;-67
2021/03/07 01:48:17;;;;;;;6.60;3.40;;;;;;;0.82;100.00;102036.88;5069597;28;20700;-68
2021/03/07 01:50:47;;;;;;;7.67;3.47;;;;;;;0.68;100.00;102032.28;5068752;28;20246;-68
2021/03/07 01:53:13;;;;;;;4.30;2.97;;;;;;;0.76;100.00;102031.41;5101880;28;20179;-68
2021/03/07 01:55:39;;;;;;;7.53;3.23;;;;;;;0.67;100.00;102025.28;5051687;28;20290;-68
2021/03/07 01:58:25;;;;;;;5.17;3.20;;;;;;;0.88;100.00;102025.47;5070377;28;20183;-68
2021/03/07 02:00:51;;;;;;;5.93;3.27;;;;;;;0.80;100.00;102028.19;5069823;28;20319;-67
2021/03/07 02:03:18;;;;;;;7.00;3.90;;;;;;;0.86;100.00;102022.16;5051645;28;20210;-67
2021/03/07 02:05:46;;;;;;;4.93;3.63;;;;;;;0.85;100.00;102021.31;5069380;28;20219;-68
2021/03/07 02:08:12;;;;;;;9.13;3.83;;;;;;;0.79;100.00;102010.50;5085956;28;20680;-68
2021/03/07 02:10:43;;;;;;;7.07;3.60;;;;;;;0.91;100.00;102006.41;5051650;28;20264;-68
2021/03/07 02:13:14;;;;;;;8.13;4.00;;;;;;;0.97;100.00;101998.53;5067925;28;20179;-68
2021/03/07 02:15:41;;;;;;;8.00;3.80;;;;;;;0.99;100.00;101999.19;5051977;28;20233;-67
2021/03/07 02:18:08;;;;;;;6.43;3.70;;;;;;;1.01;100.00;102001.66;5068948;28;20186;-69
2021/03/07 02:20:35;;;;;;;4.30;3.63;;;;;;;1.01;100.00;101991.81;5051548;28;20233;-68
2021/03/07 02:23:06;;;;;;;6.27;3.60;;;;;;;1.24;100.00;101988.09;5067462;28;20320;-68
2021/03/07 02:25:32;;;;;;;6.00;3.40;;;;;;;1.31;100.00;101994.38;5085763;28;20246;-68
2021/03/07 02:28:00;;;;;;;6.83;3.83;;;;;;;1.37;100.00;101985.63;5068904;28;20182;-67
2021/03/07 02:30:25;;;;;;;7.87;3.87;;;;;;;1.48;100.00;101984.38;5068136;28;20562;-68
2021/03/07 02:33:00;;;;;;;5.13;3.90;;;;;;;1.47;100.00;101980.88;5067703;28;20257;-68
2021/03/07 02:35:26;;;;;;;6.57;3.97;;;;;;;1.68;100.00;101989.03;5085222;28;20717;-68
2021/03/07 02:37:55;;;;;;;7.50;4.07;;;;;;;1.55;100.00;101978.94;5036074;28;20217;-68
2021/03/07 02:40:23;;;;;;;6.00;3.83;;;;;;;1.51;100.00;101987.53;5101573;28;20190;-67
2021/03/07 02:42:49;;;;;;;7.30;3.40;;;;;;;1.59;100.00;101982.09;5068915;28;20210;-68
2021/03/07 02:45:21;;;;;;;7.10;3.47;;;;;;;1.45;100.00;101982.06;5035039;28;20203;-68
2021/03/07 02:47:48;;;;;;;4.83;3.50;;;;;;;1.44;100.00;101980.41;5085069;28;20183;-68
2021/03/07 02:50:19;;;;;;;6.97;3.00;;;;;;;1.67;100.00;101971.31;5085054;28;20185;-69
2021/03/07 02:52:53;;;;;;;5.83;3.30;;;;;;;1.75;100.00;101968.53;5035640;28;20588;-68
2021/03/07 02:55:22;;;;;;;3.73;2.90;;;;;;;1.68;100.00;101967.59;5101573;28;20219;-68
2021/03/07 02:57:47;;;;;;;4.47;3.00;;;;;;;1.80;100.00;101960.81;5052494;28;20186;-67
2021/03/07 03:00:16;;;;;;;4.77;2.83;;;;;;;1.84;100.00;101962.91;5018945;28;20191;-68
2021/03/07 03:02:42;;;;;;;6.50;3.23;;;;;;;1.87;100.00;101967.06;5067768;28;20231;-68
2021/03/07 03:05:10;;;;;;;4.47;2.90;;;;;;;1.75;100.00;101953.31;5035799;28;20256;-68
2021/03/07 03:07:39;;;;;;;5.07;2.83;;;;;;;1.84;100.00;101946.03;5086239;28;20270;-68
2021/03/07 03:10:05;;;;;;;5.47;2.90;;;;;;;2.07;100.00;101940.38;5036124;28;20187;-68
2021/03/07 03:12:32;;;;;;;4.53;3.13;;;;;;;2.10;100.00;101936.50;5084953;28;20285;-67
2021/03/07 03:14:57;;;;;;;6.73;3.00;;;;;;;2.12;100.00;101934.44;5069179;28;20206;-68
2021/03/07 03:17:23;;;;;;;5.17;2.97;;;;;;;2.09;100.00;101933.00;5068403;28;20223;-67
2021/03/07 03:19:49;;;;;;;4.23;2.60;;;;;;;1.79;100.00;101929.66;5102327;28;20167;-67
2021/03/07 03:22:14;;;;;;;5.50;3.00;;;;;;;2.03;100.00;101935.56;5033890;28;20253;-68
2021/03/07 03:24:40;;;;;;;6.20;2.67;;;;;;;2.04;100.00;101931.88;5084979;28;20183;-68
2021/03/07 03:27:10;;;;;;;3.57;2.50;;;;;;;2.06;100.00;101919.13;5067496;28;20230;-68
2021/03/07 03:29:36;;;;;;;4.27;2.80;;;;;;;2.25;100.00;101927.41;5051780;28;20180;-68
2021/03/07 03:32:01;;;;;;;3.23;2.37;;;;;;;2.16;100.00;101920.50;5033659;28;20222;-68
2021/03/07 03:34:29;;;;;;;3.53;2.30;;;;;;;2.29;100.00;101918.00;5103527;28;20198;-68
2021/03/07 03:36:55;;;;;;;3.73;2.30;;;;;;;2.36;100.00;101913.50;5104825;27;20592;-68
2021/03/07 03:39:22;;;;;;;3.07;2.33;;;;;;;2.16;100.00;101925.88;5022007;28;20171;-68
2021/03/07 03:41:52;;;;;;;5.47;2.47;;;;;;;2.47;100.00;101907.66;5070078;28;20230;-67
2021/03/07 03:44:20;;;;;;;4.40;2.40;;;;;;;2.44;100.00;101910.75;5071706;28;20236;-68
2021/03/07 03:46:51;;;;;;;3.37;2.10;;;;;;;2.50;100.00;101908.13;5055052;28;20648;-67
2021/03/07 03:49:39;;;;;;;3.60;2.30;;;;;;;2.44;100.00;101902.69;5088408;28;20677;-67
2021/03/07 03:52:06;;;;;;;3.83;2.10;;;;;;;2.30;100.00;101908.91;5070069;28;20595;-68
2021/03/07 03:54:59;;;;;;;4.10;2.07;;;;;;;2.36;100.00;101900.97;5070684;28;20191;-68
2021/03/07 03:57:27;;;;;;;3.87;1.90;;;;;;;2.16;100.00;101909.78;5071022;28;20219;-67
2021/03/07 03:59:59;;;;;;;2.40;1.87;;;;;;;2.28;100.00;101897.56;5021990;28;20325;-68
2021/03/07 04:02:29;;;;;;;1.87;1.77;;;;;;;2.52;100.00;101898.03;5069696;28;20230;-67
2021/03/07 04:04:56;;;;;;;5.00;1.80;;;;;;;2.50;99.71;101889.34;5070863;28;20282;-68
2021/03/07 04:07:24;;;;;;;3.23;1.73;;;;;;;2.61;99.55;101880.81;5070517;28;20225;-67
2021/03/07 04:09:50;;;;;;;3.67;1.90;;;;;;;2.54;100.00;101876.41;5054770;28;20206;-67
2021/03/07 04:12:16;;;;;;;3.83;1.90;;;;;;;2.45;99.80;101874.84;5069461;28;20222;-68
2021/03/07 04:14:44;;;;;;;2.53;1.60;;;;;;;2.47;99.91;101871.00;5053962;28;20191;-67
2021/03/07 04:17:14;;;;;;;2.93;1.70;;;;;;;2.49;99.05;101878.81;5086964;28;20238;-68
2021/03/07 04:19:39;;;;;;;1.70;1.60;;;;;;;2.62;97.91;101868.22;5054613;28;20255;-67
2021/03/07 04:22:05;;;;;;;2.93;1.77;;;;;;;2.51;98.51;101863.38;5069446;28;20727;-69
2021/03/07 04:24:30;;;;;;;3.90;2.00;;;;;;;2.52;98.71;101860.50;5054256;28;20944;-68
2021/03/07 04:26:57;;;;;;;2.43;1.63;;;;;;;2.80;96.96;101867.59;5071398;28;20726;-67
2021/03/07 04:29:23;;;;;;;2.63;1.87;;;;;;;2.74;96.19;101857.63;5054223;28;20190;-67
2021/03/07 04:31:48;;;;;;;2.53;1.50;;;;;;;2.68;96.19;101861.06;5052208;28;20215;-70
2021/03/07 04:34:14;;;;;;;3.33;1.67;;;;;;;2.81;95.94;101861.19;5070712;28;20191;-69
2021/03/07 04:36:41;;;;;;;3.57;1.33;;;;;;;2.67;96.24;101857.75;5071389;28;20222;-67
2021/03/07 04:39:07;;;;;;;2.67;1.43;;;;;;;2.74;95.93;101854.13;5070621;28;20541;-68
2021/03/07 04:41:32;;;;;;;1.97;1.50;;;;;;;2.76;95.68;101863.63;5069899;28;20233;-67
2021/03/07 04:43:58;;;;;;;1.77;1.43;;;;;;;2.87;94.95;101849.69;5070819;28;20187;-67
2021/03/07 04:46:24;;;;;;;4.70;1.77;;;;;;;2.71;96.47;101852.66;5053060;28;20242;-68
2021/03/07 04:48:52;;;;;;;4.20;1.60;;;;;;;2.82;95.86;101857.50;5070679;28;20180;-68
2021/03/07 04:51:18;;;;;;;1.53;1.43;;;;;;;3.03;95.09;101846.72;5069515;28;20229;-67
2021/03/07 04:53:46;;;;;;;3.03;1.63;;;;;;;2.86;95.57;101845.34;5069562;28;20183;-67
2021/03/07 04:56:12;;;;;;;3.13;2.30;;;;;;;2.77;96.39;101851.88;5070893;28;20234;-68
2021/03/07 04:58:40;;;;;;;4.57;2.20;;;;;;;2.71;96.15;101844.63;5053703;28;20264;-68
2021/03/07 05:01:05;;;;;;;5.90;2.40;;;;;;;2.53;98.21;101839.91;5086535;28;20325;-67
2021/03/07 05:03:31;;;;;;;4.83;2.63;;;;;;;2.80;96.70;101846.13;5036021;28;20305;-67
2021/03/07 05:05:57;;;;;;;5.40;2.77;;;;;;;2.66;97.05;101842.72;5086481;28;20265;-67
2021/03/07 05:08:25;;;;;;;8.50;3.07;;;;;;;2.57;97.78;101838.50;5069998;28;20183;-68
2021/03/07 05:10:53;;;;;;;7.33;4.60;;;;;;;2.45;99.32;101842.69;5069578;28;20579;-69
2021/03/07 05:13:21;;;;;;;5.73;3.53;;;;;;;2.48;99.41;101828.91;5086142;28;20189;-68
2021/03/07 05:15:48;;;;;;;5.50;3.93;;;;;;;2.62;99.27;101833.38;5052955;28;20226;-68
2021/03/07 05:18:13;;;;;;;7.23;3.40;;;;;;;2.74;97.37;101820.06;5070094;28;20179;-67
2021/03/07 05:20:39;;;;;;;4.30;2.90;;;;;;;2.48;99.06;101820.88;5036329;28;20230;-68
2021/03/07 05:23:04;;;;;;;4.97;3.10;;;;;;;2.64;99.02;101824.13;5052186;28;20215;-68
2021/03/07 05:25:30;;;;;;;3.00;2.40;;;;;;;2.54;98.50;101812.88;5068676;28;20241;-67
2021/03/07 05:27:58;;;;;;;4.87;2.50;;;;;;;2.51;99.67;101818.66;5069585;28;20183;-67
2021/03/07 05:30:24;;;;;;;3.97;2.40;;;;;;;2.44;100.00;101823.09;5070164;28;20674;-67
2021/03/07 05:32:49;;;;;;;4.20;2.33;;;;;;;2.46;100.00;101814.88;5068674;28;20266;-68
2021/03/07 05:35:17;;;;;;;3.53;2.63;;;;;;;2.51;100.00;101812.44;5102680;28;20229;-67
2021/03/07 05:37:43;;;;;;;4.43;2.67;;;;;;;2.49;100.00;101809.97;5053294;28;20179;-67
2021/03/07 05:40:09;;;;;;;4.77;2.67;;;;;;;2.45;100.00;101807.84;5052338;28;20216;-67
2021/03/07 05:42:36;;;;;;;4.43;2.70;;;;;;;2.48;99.79;101807.47;5069251;28;20225;-67
2021/03/07 05:45:03;;;;;;;4.00;2.60;;;;;;;2.43;100.00;101809.88;5052450;28;20318;-67
2021/03/07 05:47:28;;;;;;;2.87;2.50;;;;;;;2.60;99.79;101811.28;5069383;28;20198;-68
2021/03/07 05:49:54;;;;;;;2.70;1.90;;;;;;;2.50;99.87;101814.28;5070482;28;20225;-68
2021/03/07 05:52:23;;;;;;;4.27;2.47;;;;;;;2.44;100.00;101814.25;5051282;28;20708;-67
2021/03/07 05:54:51;;;;;;;4.33;2.47;;;;;;;2.63;98.98;101813.59;5049512;28;20214;-68
2021/03/07 05:57:23;;;;;;;5.30;2.40;;;;;;;2.52;99.17;101814.09;5048363;28;20273;-67
2021/03/07 05:59:51;;;;;;;2.67;2.00;;;;;;;2.50;100.00;101813.47;5032711;28;20199;-69
2021/03/07 06:02:17;;;;;;;2.60;2.40;;;;;;;2.64;99.62;101802.69;5048776;28;20259;-68
2021/03/07 06:04:43;;;;;;;3.30;2.07;;;;;;;2.64;99.09;101801.81;5016151;28;20642;-69
2021/03/07 06:07:09;;;;;;;4.80;2.50;;;;;;;2.59;98.99;101799.72;5031833;28;20235;-69
2021/03/07 06:09:35;;;;;;;3.77;2.67;;;;;;;2.45;100.00;101807.84;5034980;28;20188;-69
2021/03/07 06:12:02;;;;;;;3.07;2.20;;;;;;;2.65;99.89;101798.13;5063541;28;20217;-67
2021/03/07 06:14:29;;;;;;;4.07;2.30;;;;;;;2.57;98.94;101800.97;5069271;28;20187;-68
2021/03/07 06:17:11;;;;;;;5.10;2.47;;;;;;;2.52;98.96;101788.13;5068955;28;20230;-68
2021/03/07 06:20:00;;;;;;;3.90;2.20;;;;;;;2.46;99.75;101794.25;5068676;28;20183;-67
2021/03/07 06:22:29;;;;;;;3.63;2.53;;;;;;;2.34;100.00;101789.59;5067611;28;20227;-68
2021/03/07 06:24:55;;;;;;;3.80;2.60;;;;;;;2.63;99.65;101798.31;5053068;28;20698;-68
2021/03/07 06:27:21;;;;;;;3.87;2.60;;;;;;;2.62;99.37;101787.78;5069791;28;20269;-68
2021/03/07 06:29:57;;;;;;;4.87;2.47;;;;;;;2.67;98.84;101790.72;5070039;28;20186;-69
2021/03/07 06:32:26;;;;;;;2.93;2.57;;;;;;;2.64;98.73;101780.38;5068488;28;20258;-70
2021/03/07 06:34:54;;;;;;;3.40;2.60;;;;;;;2.86;98.28;101780.97;5070160;28;20317;-69
2021/03/07 06:37:22;;;;;;;3.40;2.13;;;;;;;3.00;96.08;101782.72;5103912;28;20219;-69
2021/03/07 06:39:50;;;;;;;4.00;2.53;;;;;;;2.76;97.00;101780.47;5070057;28;20224;-68
2021/03/07 06:42:16;;;;;;;3.40;2.33;;;;;;;2.83;98.12;101780.53;5051236;28;20703;-68
2021/03/07 06:45:02;;;;;;;3.77;2.83;;;;;;;3.10;97.08;101777.84;5069235;28;20270;-68
2021/03/07 06:47:28;;;;;;;2.20;2.00;;;;;;;3.19;95.77;101776.66;5049546;28;20219;-68
2021/03/07 06:50:14;;;;;;;4.13;2.23;;;;;;;2.99;96.30;101777.56;5050905;28;20198;-68
2021/03/07 06:52:57;;;;;;;3.57;2.47;;;;;;;2.96;97.05;101770.72;5062544;28;20245;-70
2021/03/07 06:55:29;;;;;;;4.47;2.20;;;;;;;2.76;97.97;101772.44;5052759;28;20285;-69
2021/03/07 06:57:57;;;;;;;3.47;2.33;;;;;;;3.04;96.22;101773.28;5070889;28;20175;-68
2021/03/07 07:00:36;;;;;;;3.63;2.50;;;;;;;3.00;97.55;101769.31;5051875;28;20607;-68
2021/03/07 07:03:20;;;;;;;5.60;2.87;;;;;;;3.07;96.35;101772.88;5035282;28;20225;-68
2021/03/07 07:05:49;;;;;;;3.10;2.53;;;;;;;3.10;96.47;101769.81;5085218;28;20257;-68
2021/03/07 07:08:15;;;;;;;4.47;2.47;;;;;;;3.08;96.90;101774.53;5052435;28;20729;-69
2021/03/07 07:10:53;;;;;;;3.30;2.60;;;;;;;3.15;95.81;101770.00;5072325;28;20317;-69
2021/03/07 07:13:19;;;;;;;2.53;2.30;;;;;;;3.01;96.64;101767.47;5071811;28;20680;-68
2021/03/07 07:16:07;;;;;;;4.17;2.40;;;;;;;2.99;96.64;101764.16;5071991;28;20230;-68
2021/03/07 07:18:34;;;;;;;3.77;2.50;;;;;;;3.03;95.99;101765.41;5089996;28;20186;-66
2021/03/07 07:21:03;;;;;;;2.70;2.07;;;;;;;2.85;96.67;101768.59;5088838;28;20692;-67
2021/03/07 07:23:32;;;;;;;3.90;2.97;;;;;;;2.92;96.90;101758.72;5055506;28;20298;-68
2021/03/07 07:26:02;;;;;;;3.30;2.40;;;;;;;2.83;97.04;101762.59;5055147;28;20223;-69
2021/03/07 07:28:28;;;;;;;3.07;2.47;;;;;;;2.91;96.42;101758.91;5072586;28;20187;-68
2021/03/07 07:30:56;;;;;;;2.73;2.43;;;;;;;2.93;96.73;101763.09;5088915;28;20759;-69
2021/03/07 07:33:41;;;;;;;3.10;2.40;;;;;;;3.09;96.41;101760.91;5071476;28;20179;-68
2021/03/07 07:36:08;;;;;;;3.13;2.43;;;;;;;3.09;95.13;101762.75;5071717;28;20230;-68
2021/03/07 07:38:37;;;;;;;4.03;2.97;;;;;;;3.08;96.11;101761.13;5088836;28;20212;-67
2021/03/07 07:41:03;;;;;;;4.57;2.60;;;;;;;3.26;95.06;101761.41;5054624;28;20704;-67
2021/03/07 07:43:48;;;;;;;5.27;3.00;;;;;;;3.12;95.32;101757.00;5071266;28;20333;-66
2021/03/07 07:46:16;;;;;;;4.50;3.30;;;;;;;3.10;95.41;101757.19;5088318;28;20234;-66
2021/03/07 07:48:41;;;;;;;4.70;2.77;;;;;;;3.14;95.03;101768.38;5073471;28;20182;-67
2021/03/07 07:51:34;;;;;;;4.87;2.67;;;;;;;3.28;94.58;101770.09;5071562;28;20226;-66
2021/03/07 07:54:00;;;;;;;3.40;2.83;;;;;;;3.20;95.10;101762.22;5105583;28;20652;-67
2021/03/07 07:56:42;;;;;;;4.60;2.73;;;;;;;3.13;95.02;101761.34;5071949;28;20226;-67
2021/03/07 07:59:12;;;;;;;5.73;3.30;;;;;;;3.25;95.64;101765.97;5072099;28;20178;-66
2021/03/07 08:01:52;;;;;;;4.10;3.10;;;;;;;3.27;94.66;101757.72;5070409;28;20232;-67
2021/03/07 08:04:36;;;;;;;4.03;2.87;;;;;;;3.01;95.46;101760.25;5105608;28;20648;-67
2021/03/07 08:07:05;;;;;;;3.40;2.50;;;;;;;3.00;95.24;101771.97;5104810;28;20230;-67
2021/03/07 08:09:45;;;;;;;4.43;2.67;;;;;;;3.19;95.40;101765.94;5071789;28;20230;-67
2021/03/07 08:12:50;;;;;;;3.60;2.70;;;;;;;3.15;96.19;101765.50;5070067;28;20215;-67
2021/03/07 08:15:27;;;;;;;5.07;2.90;;;;;;;3.37;94.50;101763.53;5072133;28;20209;-68
2021/03/07 08:17:58;;;;;;;3.87;2.90;;;;;;;3.14;95.36;101763.81;5071464;28;20660;-67
2021/03/07 08:20:41;;;;;;;4.43;2.83;;;;;;;3.51;93.56;101750.81;5070412;28;20227;-68
2021/03/07 08:23:10;;;;;;;6.97;3.33;;;;;;;3.45;93.11;101756.97;5051504;28;20215;-68
2021/03/07 08:25:51;;;;;;;4.97;2.97;;;;;;;3.41;93.76;101765.63;5050389;28;20732;-67
2021/03/07 08:28:25;;;;;;;5.30;2.93;;;;;;;3.43;94.26;101761.72;5051064;28;20184;-67
2021/03/07 08:31:05;;;;;;;3.60;3.03;;;;;;;3.38;94.18;101749.09;5051846;28;20610;-70
2021/03/07 08:33:34;;;;;;;5.57;2.70;;;;;;;3.25;94.00;101749.03;5018257;28;20522;-67
2021/03/07 08:36:22;;;;;;;6.63;3.20;;;;;;;3.54;93.37;101745.03;5051491;28;20224;-67
2021/03/07 08:38:54;;;;;;;4.57;3.30;;;;;;;3.41;94.31;101748.69;5034028;28;20191;-67
2021/03/07 08:41:21;;;;;;;6.33;3.17;;;;;;;3.56;93.33;101747.53;5077731;28;20219;-68
2021/03/07 08:43:51;;;;;;;4.43;3.20;;;;;;;3.60;92.60;101736.16;5033320;28;20274;-68
2021/03/07 08:46:21;;;;;;;5.10;3.30;;;;;;;3.68;92.69;101741.38;5050299;28;20231;-72
2021/03/07 08:48:55;;;;;;;4.13;2.87;;;;;;;3.45;92.81;101746.22;5062201;28;20218;-68
2021/03/07 08:51:31;;;;;;;4.03;2.97;;;;;;;3.54;93.15;101739.66;5033487;28;20254;-69
2021/03/07 08:54:07;;;;;;;4.00;3.30;;;;;;;3.67;92.49;101739.72;5023204;28;20510;-68
2021/03/07 08:56:34;;;;;;;3.30;2.80;;;;;;;3.62;92.05;101735.97;5015862;28;20259;-68
2021/03/07 08:58:59;;;;;;;4.83;3.37;;;;;;;3.74;92.14;101735.22;5049179;28;20219;-68
2021/03/07 09:01:25;;;;;;;3.80;3.40;;;;;;;3.83;91.29;101742.06;5049548;28;20215;-69
2021/03/07 09:03:57;;;;;;;4.00;3.20;;;;;;;3.82;90.94;101726.94;5049753;28;20563;-69
2021/03/07 09:06:30;;;;;;;3.80;3.00;;;;;;;3.93;90.41;101723.69;5030826;28;20223;-69
2021/03/07 09:09:18;;;;;;;5.40;3.30;;;;;;;3.92;90.02;101719.34;5023236;28;20194;-68
2021/03/07 09:11:47;;;;;;;4.17;3.37;;;;;;;3.91;90.48;101720.38;5047751;28;20207;-69
2021/03/07 09:14:15;;;;;;;4.13;3.40;;;;;;;3.96;89.72;101713.34;5029873;28;20232;-68
2021/03/07 09:16:46;;;;;;;4.73;2.90;;;;;;;4.05;89.19;101717.50;5046483;28;20230;-69
2021/03/07 09:19:27;;;;;;;4.20;2.93;;;;;;;3.95;88.77;101716.22;5037288;28;20232;-68
2021/03/07 09:22:11;;;;;;;7.47;3.30;;;;;;;3.95;89.93;101710.84;5056224;28;20290;-68
2021/03/07 09:24:40;;;;;;;3.77;2.90;;;;;;;4.12;89.51;101714.81;5049726;28;20237;-69
2021/03/07 09:27:15;;;;;;;4.03;3.20;;;;;;;4.15;88.60;101707.16;5049213;28;20249;-71
2021/03/07 09:30:08;;;;;;;3.40;3.10;;;;;;;4.01;88.48;101710.88;5049223;28;20659;-68
2021/03/07 09:32:50;;;;;;;4.40;3.20;;;;;;;4.02;87.49;101701.78;5038871;28;20242;-71
2021/03/07 09:35:17;;;;;;;3.63;3.17;;;;;;;4.15;89.15;101706.34;5030493;28;20239;-68
2021/03/07 09:37:42;;;;;;;4.27;3.30;;;;;;;4.06;88.04;101704.88;5049807;28;20222;-69
2021/03/07 09:40:12;;;;;;;5.73;3.33;;;;;;;4.05;88.79;101711.31;5050027;28;20187;-69
2021/03/07 09:42:43;;;;;;;6.77;3.70;;;;;;;4.16;87.50;101713.38;5043007;28;20218;-69
2021/03/07 09:45:09;;;;;;;5.77;3.40;;;;;;;4.09;87.10;101707.19;5063134;28;20210;-70
2021/03/07 09:47:35;;;;;;;4.23;3.50;;;;;;;4.13;87.56;101697.66;5031680;28;20180;-69
2021/03/07 09:50:01;;;;;;;4.03;3.20;;;;;;;4.19;86.35;101696.84;5016741;28;20233;-69
2021/03/07 09:52:29;;;;;;;6.87;3.30;;;;;;;4.22;86.72;101703.44;5049580;28;20223;-69
2021/03/07 09:54:55;;;;;;;5.03;3.47;;;;;;;4.41;86.43;101688.34;5037656;28;20727;-69
2021/03/07 09:57:21;;;;;;;4.83;3.33;;;;;;;4.71;85.42;101693.09;5051349;28;20285;-68
2021/03/07 09:59:51;;;;;;;24.70;16.37;;;;;;;4.49;85.03;101694.38;5015319;28;20194;-66
2021/03/07 10:02:16;;;;;;;6.03;3.57;;;;;;;4.56;85.16;101694.34;5031875;28;20214;-67
2021/03/07 10:04:46;;;;;;;5.13;3.00;;;;;;;4.52;84.26;101685.03;5054898;28;20745;-69
2021/03/07 10:07:12;;;;;;;3.53;3.20;;;;;;;4.60;84.86;101696.44;5027906;28;20803;-68
2021/03/07 10:10:03;;;;;;;4.40;3.53;;;;;;;4.81;82.87;101688.13;5051942;28;21604;-68
2021/03/07 10:12:48;;;;;;;3.77;2.90;;;;;;;4.61;83.65;101693.53;5046487;28;20257;-68
2021/03/07 10:15:39;;;;;;;3.97;2.53;;;;;;;4.45;84.09;101687.75;5045960;28;20565;-68
2021/03/07 10:18:16;;;;;;;3.77;3.20;;;;;;;4.66;83.70;101682.13;5044153;28;20222;-68
2021/03/07 10:20:51;;;;;;;4.87;3.17;;;;;;;4.96;82.08;101676.06;5048768;28;20226;-67
2021/03/07 10:23:19;;;;;;;5.03;2.67;;;;;;;4.68;82.01;101682.75;5055440;28;20211;-68
2021/03/07 10:25:48;;;;;;;4.97;2.90;;;;;;;5.04;81.87;101673.97;5069346;28;20226;-69
2021/03/07 10:28:29;;;;;;;3.93;3.00;;;;;;;5.04;80.36;101673.16;5043096;28;20250;-67
2021/03/07 10:31:14;;;;;;;4.83;3.03;;;;;;;5.02;80.09;101676.06;5040489;28;20761;-68
2021/03/07 10:33:40;;;;;;;5.20;3.27;;;;;;;5.30;79.70;101673.06;5051913;28;20195;-68
2021/03/07 10:36:13;;;;;;;4.87;3.60;;;;;;;5.42;78.71;101672.16;5043912;28;20344;-68
2021/03/07 10:38:42;;;;;;;4.40;2.83;;;;;;;5.10;79.03;101665.03;5048736;28;20738;-68
2021/03/07 10:41:25;;;;;;;4.00;2.70;;;;;;;4.94;78.82;101664.69;5042652;28;20297;-68
2021/03/07 10:43:58;;;;;;;5.57;2.97;;;;;;;4.89;80.21;101666.34;5040261;28;20215;-68
2021/03/07 10:46:25;;;;;;;4.70;3.17;;;;;;;5.22;80.10;101644.50;5053364;28;20226;-68
2021/03/07 10:48:57;;;;;;;4.63;2.90;;;;;;;4.91;80.41;101640.03;5021606;28;20677;-67
2021/03/07 10:51:25;;;;;;;7.87;3.60;;;;;;;5.37;79.54;101632.41;5064588;28;20215;-68
2021/03/07 10:53:56;;;;;;;4.43;3.10;;;;;;;5.05;78.99;101637.09;5049038;28;20188;-67
2021/03/07 10:56:37;;;;;;;4.80;3.10;;;;;;;5.34;77.81;101634.72;5032354;28;20232;-68
2021/03/07 10:59:05;;;;;;;4.43;3.63;;;;;;;5.55;79.54;101629.00;5017061;28;20184;-70
2021/03/07 11:01:31;;;;;;;4.70;3.40;;;;;;;5.86;75.44;101625.31;5050501;28;20235;-71
2021/03/07 11:03:56;;;;;;;4.73;3.57;;;;;;;6.02;76.36;101618.56;5033314;28;20191;-70
2021/03/07 11:06:22;;;;;;;3.57;3.20;;;;;;;6.18;72.60;101621.53;5035823;28;20231;-68
2021/03/07 11:08:47;;;;;;;5.90;3.30;;;;;;;6.26;73.69;101614.00;5052584;28;20188;-68
2021/03/07 11:11:18;;;;;;;5.47;3.47;;;;;;;6.32;73.27;101628.47;5036947;28;20222;-71
2021/03/07 11:13:43;;;;;;;5.87;3.20;;;;;;;5.92;72.76;101619.03;5029353;28;20187;-68
2021/03/07 11:16:09;;;;;;;4.40;3.50;;;;;;;5.82;73.47;101615.16;5045019;28;20221;-66
2021/03/07 11:18:37;;;;;;;5.37;3.53;;;;;;;6.08;73.37;101612.28;5059087;28;20227;-65
2021/03/07 11:21:04;;;;;;;5.63;3.50;;;;;;;5.83;72.91;101604.16;5054805;28;20229;-65
2021/03/07 11:23:33;;;;;;;7.40;3.63;;;;;;;6.42;71.72;101620.69;5055518;28;20211;-63
2021/03/07 11:26:00;;;;;;;5.47;3.67;;;;;;;6.53;68.98;101612.69;5037646;28;20498;-67
2021/03/07 11:28:26;;;;;;;3.93;3.13;;;;;;;6.34;69.45;101610.19;5038333;28;20182;-68
2021/03/07 11:30:54;;;;;;;4.63;3.93;;;;;;;6.50;69.42;101612.31;5013600;28;20215;-69
2021/03/07 11:33:20;;;;;;;5.73;3.60;;;;;;;6.68;70.98;101613.16;5050231;28;20172;-70
2021/03/07 11:35:48;;;;;;;5.40;3.57;;;;;;;6.31;70.17;101606.03;5037533;28;20227;-68
2021/03/07 11:38:14;;;;;;;6.37;3.80;;;;;;;6.14;70.02;101604.13;5052033;28;20207;-69
2021/03/07 11:40:40;;;;;;;4.53;3.30;;;;;;;6.37;69.17;101599.75;5036490;28;20774;-68